Time;durP1;ratioP1;P1;durP2;ratioP2;P2;SDS_P1;SDS_P2;PMS_P1;PMS_P2;Temp;Humidity;BMP_temperature;BMP_pressure;BME280_temperature;BME280_humidity;BME280_pressure;Samples;Min_cycle;Max_cycle;Signal;HPM_P1;HPM_P2
2022/02/12 00:00:07;;;;;;;6.60;4.20;;;14.90;57.70;;;;;;5003766;28;20449;-85
2022/02/12 00:02:34;;;;;;;6.40;4.73;;;14.90;57.40;;;;;;5001583;28;20445;-84
2022/02/12 00:05:07;;;;;;;7.30;4.47;;;14.90;57.70;;;;;;5004488;28;20477;-85
2022/02/12 00:07:35;;;;;;;8.83;4.53;;;14.90;57.60;;;;;;5002776;28;20457;-85
2022/02/12 00:10:03;;;;;;;7.50;4.13;;;14.90;57.60;;;;;;5004434;28;20437;-85
2022/02/12 00:12:32;;;;;;;8.93;4.47;;;14.80;57.60;;;;;;5004228;28;20477;-84
2022/02/12 00:17:43;;;;;;;4.90;4.00;;;14.80;57.70;;;;;;5004155;28;20495;-85
2022/02/12 00:20:12;;;;;;;5.90;3.90;;;14.80;57.70;;;;;;5004386;28;20445;-84
2022/02/12 00:22:40;;;;;;;5.97;3.83;;;14.80;57.60;;;;;;5004068;28;20449;-84
2022/02/12 00:25:09;;;;;;;6.00;4.13;;;14.80;57.50;;;;;;5003197;28;20473;-84
2022/02/12 00:27:38;;;;;;;6.20;4.27;;;14.80;57.60;;;;;;5005406;28;20441;-85
2022/02/12 00:30:07;;;;;;;6.20;4.23;;;14.80;57.40;;;;;;5005355;28;20508;-84
2022/02/12 00:32:35;;;;;;;6.37;4.50;;;14.80;57.50;;;;;;5005616;28;20540;-84
2022/02/12 00:35:03;;;;;;;8.20;4.60;;;14.70;57.40;;;;;;5008945;28;20481;-85
2022/02/12 00:37:31;;;;;;;8.17;4.20;;;14.60;57.30;;;;;;5006643;28;20508;-85
2022/02/12 00:39:59;;;;;;;7.80;4.33;;;14.60;57.50;;;;;;5004632;28;20442;-85
2022/02/12 00:42:28;;;;;;;4.67;3.80;;;14.50;57.40;;;;;;5004838;28;20458;-85
2022/02/12 00:44:58;;;;;;;9.63;4.50;;;14.50;57.30;;;;;;5004786;28;20473;-84
2022/02/12 00:47:28;;;;;;;6.10;3.63;;;14.50;57.40;;;;;;5005143;28;20510;-85
2022/02/12 00:49:56;;;;;;;5.77;4.20;;;14.50;57.40;;;;;;5004979;28;20444;-85
2022/02/12 00:52:24;;;;;;;8.33;4.33;;;14.50;57.30;;;;;;5005886;28;20469;-85
2022/02/12 00:54:52;;;;;;;6.07;4.30;;;14.40;57.20;;;;;;5004354;28;20470;-85
2022/02/12 00:57:20;;;;;;;4.77;3.57;;;14.40;57.10;;;;;;5006636;28;20468;-85
2022/02/12 00:59:49;;;;;;;6.33;3.97;;;14.40;57.20;;;;;;5008588;28;20472;-85
2022/02/12 01:02:19;;;;;;;5.80;3.67;;;14.40;57.20;;;;;;5008323;28;20434;-85
2022/02/12 01:04:47;;;;;;;6.30;4.00;;;14.40;56.90;;;;;;5006569;28;20472;-86
2022/02/12 01:07:17;;;;;;;5.90;4.07;;;14.40;57.00;;;;;;5005279;28;20429;-85
2022/02/12 01:09:46;;;;;;;6.03;3.87;;;14.30;56.70;;;;;;5005234;28;20464;-85
2022/02/12 01:12:14;;;;;;;7.27;4.57;;;14.30;56.90;;;;;;5005735;28;20469;-87
2022/02/12 01:14:45;;;;;;;8.23;3.93;;;14.30;56.80;;;;;;5005997;28;20535;-85
2022/02/12 01:17:14;;;;;;;9.23;3.50;;;14.30;56.80;;;;;;5006033;28;20457;-86
2022/02/12 01:19:44;;;;;;;3.93;3.60;;;14.30;56.80;;;;;;5006978;28;20445;-85
2022/02/12 01:22:14;;;;;;;9.17;4.27;;;14.30;56.80;;;;;;5007113;28;20449;-85
2022/02/12 01:24:42;;;;;;;4.67;3.50;;;14.20;56.60;;;;;;5007473;28;20449;-85
2022/02/12 01:27:10;;;;;;;6.90;3.73;;;14.20;56.70;;;;;;5005401;28;20437;-86
2022/02/12 01:29:39;;;;;;;5.20;3.90;;;14.20;56.60;;;;;;5006196;28;20448;-85
2022/02/12 01:32:07;;;;;;;6.13;3.60;;;14.20;56.50;;;;;;5005663;28;20484;-85
2022/02/12 01:34:36;;;;;;;6.97;4.40;;;14.20;56.60;;;;;;5006020;28;20473;-85
2022/02/12 01:37:06;;;;;;;6.87;3.90;;;14.20;56.60;;;;;;5008203;28;20453;-85
2022/02/12 01:39:34;;;;;;;8.57;3.97;;;14.20;56.40;;;;;;5008017;28;20449;-85
2022/02/12 01:42:02;;;;;;;3.63;3.33;;;14.20;56.50;;;;;;5006633;28;20460;-85
2022/02/12 01:44:31;;;;;;;5.83;3.53;;;14.10;56.60;;;;;;5007205;28;20508;-85
2022/02/12 01:46:59;;;;;;;5.60;3.83;;;14.10;56.30;;;;;;5008093;28;20445;-85
2022/02/12 01:49:28;;;;;;;6.77;3.60;;;14.10;56.30;;;;;;5005943;28;20442;-86
2022/02/12 01:51:56;;;;;;;4.60;3.60;;;14.10;56.30;;;;;;5006402;28;20516;-86
2022/02/12 01:54:26;;;;;;;5.60;3.43;;;14.10;56.20;;;;;;5006130;28;20477;-85
2022/02/12 01:56:55;;;;;;;8.23;4.40;;;14.10;56.20;;;;;;5006630;28;20496;-85
2022/02/12 01:59:24;;;;;;;9.33;3.60;;;14.10;56.30;;;;;;5006026;28;20453;-85
2022/02/12 02:01:52;;;;;;;5.00;3.50;;;14.00;56.20;;;;;;5007813;28;20472;-85
2022/02/12 02:04:20;;;;;;;5.10;4.10;;;14.10;56.50;;;;;;5007110;28;20457;-85
2022/02/12 02:06:50;;;;;;;6.40;3.80;;;14.10;56.20;;;;;;5007428;28;20484;-85
2022/02/12 02:09:19;;;;;;;5.27;3.70;;;14.00;56.20;;;;;;5002685;28;20461;-85
2022/02/12 02:11:49;;;;;;;7.20;4.20;;;14.00;56.20;;;;;;5004712;28;20460;-85
2022/02/12 02:14:17;;;;;;;5.33;3.83;;;14.00;56.30;;;;;;5006097;28;20477;-85
2022/02/12 02:16:45;;;;;;;15.20;3.80;;;14.00;56.20;;;;;;5006357;28;20441;-86
2022/02/12 02:19:13;;;;;;;5.90;3.97;;;14.00;56.00;;;;;;4996639;28;20431;-85
2022/02/12 02:21:42;;;;;;;5.60;3.83;;;14.00;56.00;;;;;;4994675;28;20453;-85
2022/02/12 02:24:17;;;;;;;4.30;3.73;;;13.90;56.00;;;;;;4996323;28;20461;-86
2022/02/12 02:26:45;;;;;;;8.30;3.70;;;13.90;55.90;;;;;;5004737;28;20429;-84
2022/02/12 02:29:13;;;;;;;5.17;3.50;;;13.90;56.00;;;;;;4995145;28;20425;-84
2022/02/12 02:31:41;;;;;;;5.33;3.80;;;13.90;55.90;;;;;;4996588;28;20464;-84
2022/02/12 02:34:09;;;;;;;7.33;3.60;;;13.90;56.00;;;;;;4995560;28;20481;-85
2022/02/12 02:36:37;;;;;;;5.00;3.50;;;13.90;56.00;;;;;;4995249;28;20488;-84
2022/02/12 02:39:05;;;;;;;8.87;3.90;;;13.80;55.70;;;;;;4999309;28;20449;-84
2022/02/12 02:41:34;;;;;;;5.63;3.50;;;13.80;55.80;;;;;;5006480;28;20457;-84
2022/02/12 02:44:02;;;;;;;5.27;3.60;;;13.80;55.80;;;;;;5007622;28;20458;-84
2022/02/12 02:46:30;;;;;;;6.70;3.70;;;13.80;55.80;;;;;;4999867;28;20453;-84
2022/02/12 02:48:58;;;;;;;4.63;3.73;;;13.80;55.80;;;;;;5002883;28;20476;-84
2022/02/12 02:56:58;;;;;;;5.70;3.47;;;13.70;55.70;;;;;;5002431;28;20466;-85
2022/02/12 02:59:26;;;;;;;8.47;4.20;;;13.70;55.70;;;;;;5006780;28;20528;-84
2022/02/12 03:01:54;;;;;;;6.60;3.60;;;13.70;55.50;;;;;;5005512;28;20446;-85
2022/02/12 03:04:22;;;;;;;5.17;3.30;;;13.70;55.50;;;;;;4995314;28;20527;-84
2022/02/12 03:06:50;;;;;;;8.00;3.93;;;13.70;56.20;;;;;;4992883;28;20430;-84
2022/02/12 03:09:18;;;;;;;4.57;3.53;;;13.60;55.30;;;;;;4992545;28;20469;-84
2022/02/12 03:11:46;;;;;;;4.93;3.60;;;13.60;55.50;;;;;;4992118;28;20426;-84
2022/02/12 03:14:15;;;;;;;6.60;3.70;;;13.60;55.30;;;;;;4992069;28;20482;-84
2022/02/12 03:16:43;;;;;;;6.30;3.90;;;13.60;55.40;;;;;;4997928;28;20461;-85
2022/02/12 03:19:11;;;;;;;5.03;3.70;;;13.60;55.30;;;;;;5012767;28;20441;-85
2022/02/12 03:21:39;;;;;;;7.90;4.40;;;13.50;55.10;;;;;;5011718;28;20452;-85
2022/02/12 03:24:07;;;;;;;9.67;3.80;;;13.60;55.20;;;;;;5011901;28;20457;-84
2022/02/12 03:26:35;;;;;;;5.40;3.77;;;13.50;55.10;;;;;;5012261;28;20433;-84
2022/02/12 03:29:03;;;;;;;4.80;3.50;;;13.50;55.20;;;;;;5011190;28;20477;-84
2022/02/12 03:31:32;;;;;;;7.50;3.77;;;13.50;55.10;;;;;;5011716;28;20472;-84
2022/02/12 03:34:00;;;;;;;7.83;3.50;;;13.50;55.10;;;;;;5010775;28;20469;-85
2022/02/12 03:36:28;;;;;;;4.80;3.60;;;13.50;55.00;;;;;;5010615;28;20457;-85
2022/02/12 03:38:56;;;;;;;5.90;3.23;;;13.50;55.00;;;;;;5011497;28;20434;-84
2022/02/12 03:41:25;;;;;;;4.17;3.70;;;13.40;54.90;;;;;;5011257;28;20468;-83
2022/02/12 03:43:53;;;;;;;5.87;3.67;;;13.40;55.00;;;;;;5011554;28;20540;-84
2022/02/12 03:46:21;;;;;;;7.70;3.30;;;13.40;54.80;;;;;;5011780;28;20437;-83
2022/02/12 03:48:50;;;;;;;5.60;3.90;;;13.40;54.80;;;;;;5010366;28;20465;-85
2022/02/12 03:51:18;;;;;;;6.93;3.87;;;13.40;55.00;;;;;;5010887;28;20453;-83
2022/02/12 03:53:47;;;;;;;4.20;3.43;;;13.40;54.70;;;;;;5011253;28;20859;-84
2022/02/12 03:56:15;;;;;;;4.57;3.63;;;13.40;54.90;;;;;;5011583;28;20472;-84
2022/02/12 03:58:43;;;;;;;3.67;3.10;;;13.40;54.60;;;;;;5011310;28;20433;-85
2022/02/12 04:01:11;;;;;;;5.47;3.47;;;13.40;54.80;;;;;;5011414;28;20473;-84
2022/02/12 04:03:39;;;;;;;7.00;4.10;;;13.40;54.50;;;;;;5011520;28;20453;-84
2022/02/12 04:06:08;;;;;;;6.03;3.80;;;13.40;54.70;;;;;;5011444;28;20469;-83
2022/02/12 04:08:36;;;;;;;6.07;3.37;;;13.30;54.40;;;;;;5009669;28;20457;-83
2022/02/12 04:11:04;;;;;;;5.83;3.40;;;13.30;54.50;;;;;;5011068;28;20936;-83
2022/02/12 04:13:34;;;;;;;6.10;3.60;;;13.30;55.00;;;;;;5010345;28;20487;-84
2022/02/12 04:16:02;;;;;;;6.70;3.80;;;13.30;54.60;;;;;;5005289;28;20500;-83
2022/02/12 04:18:29;;;;;;;6.17;3.87;;;13.20;54.60;;;;;;5008749;28;20465;-83
2022/02/12 04:20:59;;;;;;;5.80;3.63;;;13.30;54.50;;;;;;5011333;28;20441;-83
2022/02/12 04:23:28;;;;;;;5.70;3.50;;;13.20;54.40;;;;;;5010713;28;20441;-83
2022/02/12 04:25:56;;;;;;;7.73;3.63;;;13.20;54.40;;;;;;5011176;28;20485;-83
2022/02/12 04:28:26;;;;;;;4.30;3.27;;;13.20;54.40;;;;;;5011228;28;20460;-84
2022/02/12 04:30:59;;;;;;;3.93;2.67;;;13.20;54.40;;;;;;5011212;28;20429;-84
2022/02/12 04:33:27;;;;;;;5.67;3.00;;;13.20;54.50;;;;;;5010799;28;20422;-84
2022/02/12 04:35:55;;;;;;;8.00;3.10;;;13.10;54.40;;;;;;5010318;28;20484;-84
2022/02/12 04:38:23;;;;;;;3.50;3.20;;;13.10;54.50;;;;;;5010120;28;20445;-84
2022/02/12 04:40:52;;;;;;;11.80;3.50;;;13.10;54.20;;;;;;5010913;28;20453;-84
2022/02/12 04:43:20;;;;;;;5.30;3.20;;;13.10;55.10;;;;;;5009627;28;20461;-84
2022/02/12 04:45:48;;;;;;;5.97;3.57;;;13.10;54.30;;;;;;5007088;28;20457;-84
2022/02/12 04:48:16;;;;;;;6.60;3.50;;;13.10;54.40;;;;;;5000127;28;20445;-84
2022/02/12 04:50:44;;;;;;;5.67;3.57;;;13.10;54.30;;;;;;4999788;28;20446;-84
2022/02/12 04:53:12;;;;;;;7.00;3.30;;;13.10;54.30;;;;;;5000052;28;20477;-85
2022/02/12 04:55:40;;;;;;;4.50;3.30;;;13.10;54.30;;;;;;5000157;28;20512;-84
2022/02/12 04:58:09;;;;;;;3.27;2.97;;;13.10;54.30;;;;;;4999599;28;20481;-84
2022/02/12 05:00:37;;;;;;;6.00;3.23;;;13.00;54.10;;;;;;4998326;28;20457;-84
2022/02/12 05:03:05;;;;;;;4.83;3.50;;;13.00;54.20;;;;;;4999939;28;20457;-84
2022/02/12 05:05:35;;;;;;;5.33;3.20;;;13.00;54.00;;;;;;4999596;28;20462;-84
2022/02/12 05:08:03;;;;;;;3.63;2.97;;;13.00;54.00;;;;;;5000128;28;20438;-83
2022/02/12 05:10:31;;;;;;;5.27;3.57;;;13.00;53.90;;;;;;4999208;28;20469;-83
2022/02/12 05:12:59;;;;;;;4.63;3.30;;;13.00;54.10;;;;;;4999476;28;20426;-85
2022/02/12 05:15:29;;;;;;;5.77;3.67;;;13.00;54.00;;;;;;4997884;28;20507;-84
2022/02/12 05:17:57;;;;;;;9.07;3.50;;;13.00;53.90;;;;;;4999253;28;20477;-85
2022/02/12 05:20:25;;;;;;;10.87;4.60;;;13.00;54.10;;;;;;4999539;28;20468;-84
2022/02/12 05:22:53;;;;;;;5.53;3.40;;;13.00;53.90;;;;;;4999237;28;20441;-84
2022/02/12 05:25:21;;;;;;;5.90;3.40;;;12.90;53.90;;;;;;4999262;28;20461;-83
2022/02/12 05:27:49;;;;;;;5.90;3.70;;;13.00;53.90;;;;;;4998941;28;20569;-85
2022/02/12 05:30:17;;;;;;;4.27;3.50;;;13.00;53.90;;;;;;4998694;28;20462;-85
2022/02/12 05:32:46;;;;;;;7.20;4.00;;;12.90;53.80;;;;;;4997730;28;20503;-84
2022/02/12 05:35:14;;;;;;;7.33;4.23;;;12.90;53.70;;;;;;4998493;28;20469;-84
2022/02/12 05:37:43;;;;;;;5.57;3.87;;;12.90;53.80;;;;;;4998449;28;20466;-84
2022/02/12 05:40:11;;;;;;;5.30;3.27;;;12.90;53.70;;;;;;4998745;28;20480;-84
2022/02/12 05:42:39;;;;;;;6.03;3.77;;;12.90;53.60;;;;;;4994548;28;20933;-84
2022/02/12 05:45:08;;;;;;;6.20;3.30;;;12.80;53.60;;;;;;4994991;28;20485;-84
2022/02/12 05:47:38;;;;;;;9.97;3.40;;;12.90;53.80;;;;;;4999738;28;20459;-83
2022/02/12 05:50:08;;;;;;;4.53;3.20;;;12.80;53.50;;;;;;5005434;28;20960;-84
2022/02/12 05:52:36;;;;;;;5.73;3.07;;;12.80;53.70;;;;;;4993014;28;20433;-83
2022/02/12 05:55:05;;;;;;;5.10;3.40;;;12.80;53.70;;;;;;4993000;28;20485;-83
2022/02/12 05:57:33;;;;;;;3.63;2.83;;;12.80;53.60;;;;;;4992667;28;20471;-84
2022/02/12 06:00:01;;;;;;;6.73;3.33;;;12.80;53.60;;;;;;4992812;28;20429;-83
2022/02/12 06:02:29;;;;;;;6.80;3.93;;;12.80;53.50;;;;;;4992733;28;20937;-83
2022/02/12 06:04:56;;;;;;;5.53;3.20;;;12.80;53.60;;;;;;4991875;28;20486;-83
2022/02/12 06:07:26;;;;;;;7.30;3.40;;;12.80;53.60;;;;;;4992716;28;20433;-84
2022/02/12 06:09:53;;;;;;;5.07;3.10;;;12.80;53.60;;;;;;4993058;28;20433;-84
2022/02/12 06:12:22;;;;;;;8.07;3.77;;;12.80;53.50;;;;;;4993354;28;20473;-84
2022/02/12 06:14:50;;;;;;;7.80;3.87;;;12.80;53.40;;;;;;4992987;28;20571;-84
2022/02/12 06:17:18;;;;;;;5.43;3.13;;;12.80;53.40;;;;;;4990837;28;20532;-83
2022/02/12 06:19:46;;;;;;;4.20;3.33;;;12.70;53.40;;;;;;4990089;28;20469;-84
2022/02/12 06:22:14;;;;;;;5.20;3.30;;;12.70;53.20;;;;;;4992818;28;20492;-83
2022/02/12 06:24:43;;;;;;;7.20;3.37;;;12.70;53.00;;;;;;4993899;28;20473;-83
2022/02/12 06:27:11;;;;;;;7.40;3.50;;;12.70;53.20;;;;;;4994348;28;20469;-84
2022/02/12 06:29:39;;;;;;;6.43;3.30;;;12.70;53.20;;;;;;4994517;28;21003;-83
2022/02/12 06:32:07;;;;;;;4.60;3.57;;;12.70;53.20;;;;;;4994315;28;20483;-83
2022/02/12 06:34:35;;;;;;;5.83;3.10;;;12.60;53.20;;;;;;4994882;28;20540;-83
2022/02/12 06:37:03;;;;;;;8.40;3.73;;;12.70;53.20;;;;;;4994575;28;20914;-84
2022/02/12 06:39:31;;;;;;;7.60;2.97;;;12.70;53.20;;;;;;4995590;28;20429;-83
2022/02/12 06:42:02;;;;;;;7.10;3.10;;;12.60;52.90;;;;;;4996654;28;20484;-83
2022/02/12 06:44:30;;;;;;;5.87;3.30;;;12.60;52.80;;;;;;4994750;28;20883;-82
2022/02/12 06:46:58;;;;;;;6.60;3.43;;;12.60;53.10;;;;;;4995506;28;20473;-83
2022/02/12 06:49:26;;;;;;;6.67;3.30;;;12.60;53.00;;;;;;4995411;28;20430;-83
2022/02/12 06:51:54;;;;;;;6.13;3.63;;;12.60;52.90;;;;;;4995351;28;20433;-82
2022/02/12 06:54:21;;;;;;;8.33;4.20;;;12.60;52.90;;;;;;4995921;28;20544;-83
2022/02/12 06:56:49;;;;;;;8.83;3.60;;;12.60;52.90;;;;;;4996994;28;20556;-83
2022/02/12 06:59:19;;;;;;;5.70;3.37;;;12.60;52.80;;;;;;4996653;28;20461;-83
2022/02/12 07:01:46;;;;;;;6.97;3.27;;;12.60;52.90;;;;;;4996418;28;20491;-83
2022/02/12 07:04:14;;;;;;;4.23;2.83;;;12.50;52.90;;;;;;4995480;28;20485;-84
2022/02/12 07:06:42;;;;;;;6.37;3.13;;;12.60;53.10;;;;;;4997474;28;20457;-83
2022/02/12 07:09:11;;;;;;;4.30;3.30;;;12.60;53.00;;;;;;4996281;28;20452;-84
2022/02/12 07:11:39;;;;;;;6.30;2.90;;;12.60;52.80;;;;;;4997006;28;20460;-84
2022/02/12 07:14:08;;;;;;;6.00;2.80;;;12.60;52.70;;;;;;4997380;28;20469;-83
2022/02/12 07:16:37;;;;;;;4.70;3.00;;;12.70;52.70;;;;;;4997214;28;20476;-84
2022/02/12 07:19:05;;;;;;;5.70;3.37;;;12.70;52.60;;;;;;4997491;28;20441;-82
2022/02/12 07:21:34;;;;;;;5.80;3.63;;;12.70;52.70;;;;;;4996236;28;20429;-82
2022/02/12 07:24:02;;;;;;;6.07;3.70;;;12.60;52.60;;;;;;4997450;28;20492;-84
2022/02/12 07:26:30;;;;;;;3.50;3.20;;;12.60;52.70;;;;;;5000271;28;20429;-83
2022/02/12 07:28:58;;;;;;;7.53;3.00;;;12.60;52.80;;;;;;4999272;28;20465;-84
2022/02/12 07:31:29;;;;;;;6.30;3.40;;;12.70;52.80;;;;;;4999690;28;20436;-83
2022/02/12 07:33:59;;;;;;;9.33;3.60;;;12.70;52.80;;;;;;4997902;28;20453;-83
2022/02/12 07:36:26;;;;;;;5.60;3.40;;;12.80;52.90;;;;;;5000449;28;20996;-83
2022/02/12 07:38:54;;;;;;;7.73;3.80;;;12.80;53.00;;;;;;5000633;28;20433;-83
2022/02/12 07:41:22;;;;;;;5.47;3.80;;;12.80;52.80;;;;;;5000357;28;20425;-83
2022/02/12 07:43:52;;;;;;;7.40;3.17;;;12.80;52.70;;;;;;5000161;28;20866;-83
2022/02/12 07:46:20;;;;;;;6.73;3.90;;;12.80;52.80;;;;;;4999810;28;20532;-82
2022/02/12 07:48:48;;;;;;;6.40;3.10;;;12.90;52.90;;;;;;5007133;28;20484;-82
2022/02/12 07:51:17;;;;;;;9.90;3.40;;;12.90;52.80;;;;;;5009193;28;20449;-82
2022/02/12 07:53:45;;;;;;;7.03;3.60;;;13.00;52.90;;;;;;5009395;28;20445;-81
2022/02/12 07:56:13;;;;;;;5.40;3.57;;;13.00;52.90;;;;;;5008574;28;20476;-82
2022/02/12 07:58:41;;;;;;;7.47;3.30;;;13.10;52.80;;;;;;5008922;28;20460;-83
2022/02/12 08:01:08;;;;;;;8.67;3.53;;;13.10;52.70;;;;;;5006913;28;20462;-83
2022/02/12 08:03:36;;;;;;;4.80;3.00;;;13.10;52.70;;;;;;5010008;28;20437;-84
2022/02/12 08:07:27;;;;;;;5.20;3.30;;;13.10;52.90;;;;;;5013307;28;20457;-83
2022/02/12 08:08:54;;;;;;;7.83;3.87;;;13.10;52.80;;;;;;5012508;28;20437;-83
2022/02/12 08:11:26;;;;;;;5.63;3.10;;;13.20;52.80;;;;;;5011342;28;20441;-82
2022/02/12 08:13:54;;;;;;;8.10;3.80;;;13.20;52.80;;;;;;5011642;28;20500;-82
2022/02/12 08:16:22;;;;;;;13.20;3.77;;;13.30;52.80;;;;;;5010782;28;20461;-82
2022/02/12 08:18:50;;;;;;;5.00;3.50;;;13.30;52.90;;;;;;5010774;28;20453;-82
2022/02/12 08:21:18;;;;;;;4.20;3.20;;;13.40;53.00;;;;;;5009197;28;20695;-82
2022/02/12 08:23:46;;;;;;;4.43;3.20;;;13.50;53.10;;;;;;5000494;28;20438;-83
2022/02/12 08:26:15;;;;;;;4.80;3.40;;;13.50;53.00;;;;;;5000599;28;20403;-83
2022/02/12 08:28:43;;;;;;;7.30;3.70;;;13.60;53.20;;;;;;4997042;28;20443;-83
2022/02/12 08:31:12;;;;;;;7.07;3.17;;;13.60;53.10;;;;;;4991593;28;20438;-83
2022/02/12 08:33:40;;;;;;;8.40;3.50;;;13.70;53.30;;;;;;5004984;28;20453;-83
2022/02/12 08:36:08;;;;;;;11.70;3.43;;;13.80;53.40;;;;;;5011883;28;20466;-83
2022/02/12 08:38:36;;;;;;;6.40;3.50;;;13.90;53.30;;;;;;5008969;28;20490;-83
2022/02/12 08:41:04;;;;;;;8.70;3.80;;;13.90;53.40;;;;;;5002831;28;20452;-83
2022/02/12 08:43:33;;;;;;;6.97;3.77;;;14.00;53.40;;;;;;5011607;28;20430;-83
2022/02/12 08:46:01;;;;;;;6.10;3.33;;;14.10;53.30;;;;;;5012129;28;20493;-82
2022/02/12 08:48:31;;;;;;;10.83;4.50;;;14.20;53.20;;;;;;5012214;28;20449;-83
2022/02/12 08:50:59;;;;;;;7.57;3.30;;;14.30;53.30;;;;;;5010924;28;20484;-82
2022/02/12 08:53:27;;;;;;;6.60;4.07;;;14.50;53.50;;;;;;5005992;28;20442;-83
2022/02/12 08:55:54;;;;;;;9.23;3.57;;;14.80;53.00;;;;;;4982350;28;20481;-83
2022/02/12 08:58:23;;;;;;;9.40;3.93;;;15.00;53.20;;;;;;4981192;28;20446;-83
2022/02/12 09:00:52;;;;;;;6.40;3.63;;;15.30;53.10;;;;;;4987609;28;20492;-84
2022/02/12 09:03:20;;;;;;;7.53;3.73;;;15.50;53.60;;;;;;4989842;28;20443;-84
2022/02/12 09:05:49;;;;;;;5.83;3.70;;;15.70;53.80;;;;;;4989123;28;20478;-83
2022/02/12 09:08:17;;;;;;;7.37;4.20;;;15.90;54.20;;;;;;4997267;28;20449;-83
2022/02/12 09:10:44;;;;;;;7.37;4.30;;;16.20;54.80;;;;;;4996179;28;20452;-83
2022/02/12 09:13:12;;;;;;;8.43;3.53;;;16.40;54.90;;;;;;4990684;28;20444;-84
2022/02/12 09:15:40;;;;;;;5.83;3.67;;;16.60;54.90;;;;;;4990681;28;20502;-84
2022/02/12 09:18:10;;;;;;;9.07;4.47;;;16.80;55.40;;;;;;4989585;28;20505;-84
2022/02/12 09:20:38;;;;;;;9.93;4.63;;;17.00;55.80;;;;;;4989674;28;21008;-84
2022/02/12 09:23:09;;;;;;;6.90;3.60;;;17.20;55.80;;;;;;4992704;28;20488;-84
2022/02/12 09:25:36;;;;;;;7.37;3.90;;;17.50;56.20;;;;;;4999143;28;20484;-85
2022/02/12 09:28:05;;;;;;;7.40;4.30;;;17.70;56.30;;;;;;4990797;28;20469;-84
2022/02/12 09:30:33;;;;;;;8.17;4.00;;;17.90;56.50;;;;;;4997473;28;20441;-84
2022/02/12 09:33:00;;;;;;;6.77;3.63;;;18.10;56.60;;;;;;4989890;28;20504;-84
2022/02/12 09:35:53;;;;;;;8.67;3.23;;;18.30;56.90;;;;;;4999634;28;20499;-84
2022/02/12 09:38:21;;;;;;;7.83;3.70;;;18.60;57.90;;;;;;5002559;28;20473;-84
2022/02/12 09:40:49;;;;;;;6.83;3.57;;;18.80;57.30;;;;;;4998451;28;20471;-84
2022/02/12 09:43:20;;;;;;;7.07;3.77;;;19.00;57.10;;;;;;5002206;28;20968;-84
2022/02/12 09:45:58;;;;;;;7.47;4.33;;;19.20;57.30;;;;;;5002056;28;20469;-84
2022/02/12 09:48:26;;;;;;;12.00;3.57;;;19.30;57.40;;;;;;5001538;28;20504;-83
2022/02/12 09:51:01;;;;;;;7.97;3.50;;;19.50;57.50;;;;;;5001515;28;20494;-84
2022/02/12 09:53:29;;;;;;;8.97;3.63;;;19.70;57.60;;;;;;5001075;28;20456;-84
2022/02/12 09:55:57;;;;;;;6.90;3.60;;;20.00;57.70;;;;;;5001236;28;20444;-84
2022/02/12 09:58:25;;;;;;;10.80;3.63;;;20.10;57.40;;;;;;5001452;28;20473;-85
2022/02/12 10:00:53;;;;;;;7.60;3.60;;;20.30;57.40;;;;;;5001856;28;20437;-84
2022/02/12 10:03:21;;;;;;;10.23;3.47;;;20.50;57.60;;;;;;5001953;28;20461;-84
2022/02/12 10:05:51;;;;;;;7.23;3.60;;;20.60;57.50;;;;;;5001239;28;20535;-84
2022/02/12 10:08:21;;;;;;;7.40;4.07;;;20.80;57.60;;;;;;5002044;28;20488;-84
2022/02/12 10:10:50;;;;;;;7.00;3.30;;;21.00;57.60;;;;;;5001397;28;20449;-84
2022/02/12 10:13:19;;;;;;;7.93;3.40;;;21.10;57.10;;;;;;5001729;28;20444;-84
2022/02/12 10:15:49;;;;;;;11.43;4.90;;;21.30;57.10;;;;;;5001989;28;20477;-84
2022/02/12 10:18:19;;;;;;;8.90;4.03;;;21.40;56.80;;;;;;5002431;28;20500;-84
2022/02/12 10:20:47;;;;;;;12.70;5.37;;;21.60;57.00;;;;;;5003073;28;20512;-84
2022/02/12 10:23:15;;;;;;;11.77;5.83;;;21.70;56.80;;;;;;5002773;28;20436;-84
2022/02/12 10:25:45;;;;;;;10.57;4.73;;;21.80;56.60;;;;;;5001390;28;20457;-83
2022/02/12 10:28:15;;;;;;;14.47;6.10;;;22.00;56.70;;;;;;5002296;28;20430;-83
2022/02/12 10:30:44;;;;;;;12.07;5.77;;;22.20;56.90;;;;;;4998125;28;20433;-84
2022/02/12 10:33:12;;;;;;;12.13;5.80;;;22.30;56.40;;;;;;4997735;28;20441;-84
2022/02/12 10:35:40;;;;;;;9.30;5.43;;;22.40;56.20;;;;;;4997488;28;20804;-83
2022/02/12 10:38:10;;;;;;;15.90;6.93;;;22.60;56.00;;;;;;4997659;28;20444;-84
2022/02/12 10:40:39;;;;;;;16.57;6.57;;;22.70;55.80;;;;;;4997923;28;20423;-83
2022/02/12 10:43:09;;;;;;;13.27;6.67;;;22.80;55.50;;;;;;4997594;28;21011;-84
2022/02/12 10:45:37;;;;;;;14.20;7.00;;;23.00;55.40;;;;;;4998061;28;20487;-84
2022/02/12 10:48:06;;;;;;;17.00;8.03;;;23.10;55.30;;;;;;5001242;28;20408;-84
2022/02/12 10:50:34;;;;;;;15.70;7.40;;;23.20;54.80;;;;;;4999030;28;20425;-83
2022/02/12 10:53:02;;;;;;;15.10;7.20;;;23.40;54.70;;;;;;4998578;28;20431;-84
2022/02/12 10:55:31;;;;;;;12.90;7.40;;;23.50;54.30;;;;;;4994308;28;20428;-85
2022/02/12 10:58:01;;;;;;;15.50;8.07;;;23.70;54.50;;;;;;4998714;28;20444;-83
2022/02/12 11:00:31;;;;;;;13.70;6.70;;;23.90;54.00;;;;;;5002696;28;20456;-84
2022/02/12 11:03:00;;;;;;;19.23;7.67;;;23.90;53.60;;;;;;5004459;28;20441;-84
2022/02/12 11:05:28;;;;;;;17.20;7.57;;;24.10;53.30;;;;;;5003283;28;20447;-82
2022/02/12 11:07:56;;;;;;;14.10;7.00;;;24.20;53.00;;;;;;5009868;28;20445;-85
2022/02/12 11:10:24;;;;;;;12.93;6.50;;;24.40;52.70;;;;;;5009220;28;20405;-82
2022/02/12 11:12:52;;;;;;;19.20;6.30;;;24.50;52.00;;;;;;5007513;28;20420;-82
2022/02/12 11:15:20;;;;;;;12.57;6.90;;;24.70;51.80;;;;;;5005414;28;20460;-81
2022/02/12 11:18:08;;;;;;;15.03;7.17;;;24.80;51.40;;;;;;5006016;28;20490;-86
2022/02/12 11:20:36;;;;;;;16.03;7.17;;;25.10;50.60;;;;;;5012985;28;20408;-85
2022/02/12 11:23:24;;;;;;;11.87;6.80;;;25.30;50.50;;;;;;5012874;28;20441;-83
2022/02/12 11:25:52;;;;;;;12.03;6.47;;;25.40;50.20;;;;;;5011406;28;20480;-85
2022/02/12 11:28:27;;;;;;;15.83;7.20;;;25.70;50.00;;;;;;5012028;28;20447;-85
2022/02/12 11:31:16;;;;;;;13.50;7.10;;;25.90;49.50;;;;;;5012774;28;20403;-88
2022/02/12 11:34:09;;;;;;;16.07;7.40;;;26.30;49.20;;;;;;5013017;28;20412;-85
2022/02/12 11:36:38;;;;;;;17.43;7.60;;;26.60;48.70;;;;;;5011193;28;20427;-87
2022/02/12 11:39:10;;;;;;;12.40;7.10;;;26.90;47.80;;;;;;5010888;28;20438;-84
2022/02/12 11:41:38;;;;;;;18.13;7.30;;;27.10;47.60;;;;;;5010949;28;20435;-84
2022/02/12 11:44:06;;;;;;;15.97;7.70;;;27.40;46.90;;;;;;5006152;28;20438;-85
2022/02/12 11:47:02;;;;;;;15.07;8.10;;;27.70;46.40;;;;;;5007514;28;20412;-83
2022/02/12 11:49:32;;;;;;;16.83;7.07;;;27.90;45.60;;;;;;5004982;28;20467;-83
2022/02/12 11:52:01;;;;;;;12.77;6.43;;;28.20;45.10;;;;;;4998642;28;20424;-83
2022/02/12 11:54:56;;;;;;;15.50;7.80;;;28.40;44.80;;;;;;4999632;28;20445;-83
2022/02/12 11:57:43;;;;;;;13.20;7.07;;;28.70;43.90;;;;;;4998628;28;20433;-84
2022/02/12 12:00:35;;;;;;;10.47;6.50;;;29.00;43.30;;;;;;4997387;28;20516;-84
2022/02/12 12:03:09;;;;;;;11.80;6.10;;;29.20;42.00;;;;;;4999138;28;20925;-84
2022/02/12 12:05:39;;;;;;;12.20;6.73;;;29.50;42.50;;;;;;4999476;28;20547;-83
2022/02/12 12:08:10;;;;;;;10.40;6.40;;;29.70;41.30;;;;;;4998186;28;20500;-82
2022/02/12 12:10:39;;;;;;;13.43;6.43;;;29.90;40.80;;;;;;5011242;28;20441;-84
2022/02/12 12:13:42;;;;;;;10.70;6.87;;;30.20;40.40;;;;;;5006697;28;20407;-84
2022/02/12 12:16:28;;;;;;;15.17;6.93;;;30.40;39.40;;;;;;5002202;28;20460;-85
2022/02/12 12:18:56;;;;;;;10.67;6.27;;;30.60;39.00;;;;;;5006837;28;20421;-83
2022/02/12 12:21:26;;;;;;;12.53;6.87;;;30.80;38.60;;;;;;5011661;28;20453;-85
2022/02/12 12:23:55;;;;;;;7.80;5.40;;;30.90;38.50;;;;;;5013624;28;20426;-87
2022/02/12 12:26:35;;;;;;;8.00;5.13;;;30.90;37.70;;;;;;5013274;28;20464;-88
2022/02/12 12:32:06;;;;;;;11.03;5.73;;;31.10;37.20;;;;;;5012689;28;20472;-85
2022/02/12 12:34:34;;;;;;;10.93;6.27;;;31.10;37.10;;;;;;5007367;28;20468;-83
2022/02/12 12:37:06;;;;;;;10.93;5.87;;;31.10;36.80;;;;;;5007998;28;20653;-84
2022/02/12 12:39:35;;;;;;;10.80;5.70;;;31.20;36.90;;;;;;5011270;28;20414;-83
2022/02/12 12:42:04;;;;;;;9.77;6.07;;;31.20;36.60;;;;;;5010556;28;20456;-84
2022/02/12 12:44:32;;;;;;;7.40;4.80;;;31.10;36.30;;;;;;5012395;28;20469;-87
2022/02/12 12:47:00;;;;;;;8.00;4.97;;;31.10;35.60;;;;;;5015457;28;20433;-86
2022/02/12 12:49:30;;;;;;;7.40;5.00;;;31.00;35.80;;;;;;5010055;28;20473;-84
2022/02/12 12:52:07;;;;;;;10.20;5.30;;;31.10;35.70;;;;;;5006817;28;20453;-84
2022/02/12 12:54:36;;;;;;;6.63;4.63;;;31.00;34.80;;;;;;5008196;28;20473;-85
2022/02/12 12:57:04;;;;;;;9.47;4.60;;;30.80;34.70;;;;;;5007697;28;20445;-85
2022/02/12 12:59:33;;;;;;;6.83;4.63;;;30.70;34.40;;;;;;5008053;28;20425;-83
2022/02/12 13:02:02;;;;;;;11.63;4.43;;;30.60;34.20;;;;;;5014064;28;20617;-85
2022/02/12 13:04:30;;;;;;;6.20;4.20;;;30.50;34.10;;;;;;5009296;28;20480;-84
2022/02/12 13:06:58;;;;;;;4.27;3.63;;;30.60;34.50;;;;;;5003241;28;20445;-85